Time;durP1;ratioP1;P1;durP2;ratioP2;P2;SDS_P1;SDS_P2;PMS_P1;PMS_P2;Temp;Humidity;BMP_temperature;BMP_pressure;BME280_temperature;BME280_humidity;BME280_pressure;Samples;Min_cycle;Max_cycle;Signal;HPM_P1;HPM_P2
2021/07/31 00:04:10;;;;;;;15.85;8.60;;;;;;;18.51;82.40;98306.44;4164331;83;21039;-83
2021/07/31 00:10:12;;;;;;;16.48;8.33;;;;;;;18.47;82.55;98299.61;4165180;83;21018;-83
2021/07/31 00:16:13;;;;;;;14.68;10.18;;;;;;;18.38;82.68;98294.56;4169047;83;21475;-84
2021/07/31 00:22:14;;;;;;;11.38;9.55;;;;;;;18.36;82.90;98294.19;4168917;83;21372;-82
2021/07/31 00:28:15;;;;;;;14.58;8.38;;;;;;;18.24;83.17;98285.27;4164378;83;21015;-83
2021/07/31 00:34:17;;;;;;;13.38;9.13;;;;;;;18.23;83.49;98288.64;4169445;83;21055;-82
2021/07/31 00:40:18;;;;;;;10.38;7.53;;;;;;;18.24;83.71;98286.66;4167663;83;21526;-83
2021/07/31 00:46:20;;;;;;;15.18;8.73;;;;;;;18.13;83.66;98271.76;4162407;83;21063;-82
2021/07/31 00:52:22;;;;;;;14.47;9.00;;;;;;;18.13;84.16;98283.44;4163578;83;21495;-83
2021/07/31 00:58:26;;;;;;;14.55;9.58;;;;;;;18.12;84.28;98277.11;4169171;82;21106;-83
2021/07/31 01:04:29;;;;;;;14.70;7.05;;;;;;;18.15;84.74;98285.16;4103753;84;21904;-82
2021/07/31 01:10:32;;;;;;;15.40;8.55;;;;;;;18.22;84.87;98282.95;4108158;84;21522;-84
2021/07/31 01:16:35;;;;;;;14.33;9.40;;;;;;;18.24;84.91;98284.67;4126972;84;21039;-82
2021/07/31 01:22:36;;;;;;;15.65;8.83;;;;;;;18.15;84.74;98281.01;4151476;83;21059;-82
2021/07/31 01:28:39;;;;;;;14.05;8.60;;;;;;;17.98;84.60;98266.46;4079063;84;21043;-82
2021/07/31 01:34:42;;;;;;;13.53;9.33;;;;;;;17.88;85.39;98270.94;4032802;86;21127;-82
2021/07/31 01:40:43;;;;;;;13.13;9.15;;;;;;;17.89;85.46;98266.95;4131549;84;21038;-82
2021/07/31 01:46:44;;;;;;;15.83;8.53;;;;;;;17.87;85.79;98269.40;4147107;84;21523;-82
2021/07/31 01:52:47;;;;;;;16.45;9.98;;;;;;;17.95;86.09;98274.27;4045856;85;21089;-82
2021/07/31 01:58:49;;;;;;;13.70;9.15;;;;;;;18.03;85.75;98265.13;4177757;83;21044;-82
2021/07/31 02:04:52;;;;;;;12.47;9.30;;;;;;;17.92;86.05;98257.75;4166420;83;21084;-83
2021/07/31 02:10:59;;;;;;;12.93;9.77;;;;;;;17.86;85.94;98252.00;4171705;83;21077;-83
2021/07/31 02:17:01;;;;;;;13.60;10.00;;;;;;;17.75;86.26;98242.45;4168007;83;21083;-83
2021/07/31 02:23:05;;;;;;;15.80;9.48;;;;;;;17.58;86.53;98235.44;4160228;83;21124;-82
2021/07/31 02:29:22;;;;;;;14.25;9.48;;;;;;;17.57;86.57;98218.05;4132554;83;21106;-83
2021/07/31 02:35:24;;;;;;;12.50;9.45;;;;;;;17.41;86.76;98215.34;4163555;83;21101;-83
2021/07/31 02:41:45;;;;;;;18.02;10.43;;;;;;;17.47;87.19;98216.38;4154323;83;25376;-83
2021/07/31 02:47:46;;;;;;;15.83;9.85;;;;;;;17.42;87.50;98222.42;4117229;84;21061;-83
2021/07/31 02:53:48;;;;;;;10.25;8.23;;;;;;;17.56;87.93;98219.88;4126591;84;21014;-82
2021/07/31 02:59:49;;;;;;;13.60;9.28;;;;;;;17.77;87.91;98228.34;4123672;84;21097;-81
2021/07/31 03:05:55;;;;;;;12.75;8.75;;;;;;;17.84;87.66;98223.97;4077318;85;21082;-82
2021/07/31 03:11:57;;;;;;;12.45;7.95;;;;;;;17.94;87.76;98224.27;4018039;85;21066;-82
2021/07/31 03:17:59;;;;;;;18.12;9.25;;;;;;;17.82;87.49;98220.11;4012655;85;21536;-85
2021/07/31 03:24:01;;;;;;;12.65;8.33;;;;;;;17.72;87.73;98229.48;4033768;86;21055;-83
2021/07/31 03:30:03;;;;;;;13.08;8.85;;;;;;;17.61;87.74;98226.25;4026716;86;21064;-85
2021/07/31 03:36:07;;;;;;;12.45;9.40;;;;;;;17.55;88.20;98226.03;4064416;83;21053;-83
2021/07/31 03:42:13;;;;;;;;;;;;;;;17.63;88.37;98232.92;4136902;84;21551;-83
2021/07/31 03:48:15;;;;;;;10.10;7.62;;;;;;;17.45;88.60;98234.62;4128689;84;20865;-85
2021/07/31 03:54:17;;;;;;;14.33;8.73;;;;;;;17.54;88.80;98230.63;4128319;84;21102;-84
2021/07/31 04:00:18;;;;;;;10.95;8.00;;;;;;;17.56;88.80;98222.64;4134314;84;21581;-82
2021/07/31 04:06:22;;;;;;;13.48;9.70;;;;;;;17.72;89.19;98224.73;4118880;84;21059;-84
2021/07/31 04:12:23;;;;;;;15.45;9.28;;;;;;;17.89;89.28;98217.11;4135131;84;21035;-83
2021/07/31 04:18:42;;;;;;;14.78;9.78;;;;;;;18.00;89.55;98212.80;4058123;86;22205;-83
2021/07/31 04:24:44;;;;;;;19.27;9.18;;;;;;;18.07;89.72;98220.88;4135666;84;21519;-84
2021/07/31 04:30:45;;;;;;;20.55;10.48;;;;;;;18.27;89.83;98228.38;4053933;85;21102;-83
2021/07/31 04:36:46;;;;;;;14.58;9.43;;;;;;;18.48;89.56;98229.09;4020552;86;21105;-83
2021/07/31 04:42:47;;;;;;;12.70;9.75;;;;;;;18.64;89.33;98228.18;4004966;86;21058;-82
2021/07/31 04:48:48;;;;;;;16.02;9.73;;;;;;;18.77;89.39;98229.54;4012524;86;21103;-83
2021/07/31 04:54:50;;;;;;;16.32;9.30;;;;;;;18.93;89.43;98239.88;4023252;86;21129;-83
2021/07/31 05:00:54;;;;;;;13.20;8.53;;;;;;;19.20;89.17;98244.89;3997548;87;21062;-83
2021/07/31 05:06:55;;;;;;;11.93;8.33;;;;;;;19.37;89.04;98251.84;4006424;86;21081;-83
2021/07/31 05:12:56;;;;;;;14.83;8.73;;;;;;;19.53;88.78;98253.80;4037319;85;21096;-83
2021/07/31 05:18:58;;;;;;;17.73;9.08;;;;;;;19.71;88.40;98255.94;4106147;84;21034;-83
2021/07/31 05:24:59;;;;;;;15.83;8.40;;;;;;;19.82;88.10;98255.71;4129057;84;21063;-83
2021/07/31 05:31:01;;;;;;;11.15;8.38;;;;;;;19.88;87.75;98269.17;4127343;84;21058;-83
2021/07/31 05:37:04;;;;;;;13.85;7.78;;;;;;;19.87;87.61;98266.84;4130661;84;21074;-83
2021/07/31 05:43:06;;;;;;;17.50;8.95;;;;;;;19.93;88.00;98264.42;4131281;84;21616;-84
2021/07/31 05:49:07;;;;;;;11.68;8.70;;;;;;;19.92;88.04;98263.48;4130873;84;21079;-85
2021/07/31 05:55:09;;;;;;;12.40;8.08;;;;;;;19.92;87.98;98267.66;4102443;84;21034;-84
2021/07/31 06:01:11;;;;;;;12.47;8.43;;;;;;;19.87;87.75;98281.48;4131961;84;21607;-83
2021/07/31 06:07:13;;;;;;;15.20;9.10;;;;;;;19.88;87.67;98276.11;4132016;84;21534;-83
2021/07/31 06:13:14;;;;;;;14.87;8.50;;;;;;;19.89;87.69;98292.92;4118311;84;21669;-84
2021/07/31 06:19:15;;;;;;;12.85;7.55;;;;;;;19.89;88.02;98305.42;4113340;84;21076;-83
2021/07/31 06:31:46;;;;;;;;;;;;;;;;;;;;;
2021/07/31 06:37:58;;;;;;;8.63;6.53;;;;;;;20.05;88.02;98321.11;4098235;84;21138;-83
2021/07/31 06:44:00;;;;;;;13.60;7.85;;;;;;;20.06;88.07;98337.33;4125042;84;22292;-83
2021/07/31 06:50:02;;;;;;;15.55;9.23;;;;;;;20.13;88.02;98334.90;4117985;84;21047;-83
2021/07/31 06:56:04;;;;;;;13.70;9.70;;;;;;;20.12;87.91;98339.67;4117417;84;21064;-83
2021/07/31 07:02:05;;;;;;;11.88;8.70;;;;;;;20.17;87.95;98345.31;4066940;84;21038;-84
2021/07/31 07:08:07;;;;;;;10.48;7.05;;;;;;;20.15;88.06;98365.19;4033579;86;21098;-83
2021/07/31 07:14:08;;;;;;;8.85;6.05;;;;;;;20.25;88.14;98371.58;4045628;85;21048;-83
2021/07/31 07:20:10;;;;;;;9.90;7.40;;;;;;;20.28;88.32;98383.81;4034967;86;21681;-83
2021/07/31 07:26:11;;;;;;;11.10;6.80;;;;;;;20.30;88.50;98382.12;4022892;87;21063;-82
2021/07/31 07:32:13;;;;;;;7.22;5.65;;;;;;;20.31;88.80;98389.85;4037455;85;22153;-82
2021/07/31 07:38:14;;;;;;;7.58;6.12;;;;;;;20.33;88.95;98391.57;4022386;85;21630;-83
2021/07/31 07:44:15;;;;;;;7.17;6.00;;;;;;;20.36;88.93;98398.37;4024708;86;21095;-82
2021/07/31 07:50:16;;;;;;;9.88;6.03;;;;;;;20.42;89.13;98408.30;4045151;86;21091;-84
2021/07/31 07:56:18;;;;;;;6.78;5.67;;;;;;;20.54;88.99;98411.00;4015447;85;21051;-84
2021/07/31 08:02:19;;;;;;;6.85;5.45;;;;;;;20.68;88.65;98415.23;4036313;85;21534;-81
2021/07/31 08:08:20;;;;;;;7.95;5.90;;;;;;;20.74;88.81;98425.31;4027744;86;21671;-85
2021/07/31 08:14:25;;;;;;;6.47;5.60;;;;;;;20.82;88.92;98432.76;4122190;84;21036;-83
2021/07/31 08:20:26;;;;;;;8.53;6.17;;;;;;;20.96;88.60;98433.02;4127284;84;21489;-83
2021/07/31 08:26:29;;;;;;;7.85;6.15;;;;;;;21.06;88.26;98431.84;4088695;85;21178;-83
2021/07/31 08:32:31;;;;;;;7.33;5.80;;;;;;;21.16;88.52;98428.44;4029750;85;21198;-83
2021/07/31 08:38:33;;;;;;;7.42;5.97;;;;;;;21.28;88.27;98425.55;3978422;86;21098;-83
2021/07/31 08:44:35;;;;;;;7.17;5.60;;;;;;;21.39;88.09;98417.53;4116186;84;21052;-83
2021/07/31 08:50:39;;;;;;;7.00;5.45;;;;;;;21.50;87.82;98426.22;4131191;84;21066;-83
2021/07/31 08:56:43;;;;;;;7.72;5.58;;;;;;;21.54;87.49;98425.47;4128433;84;21109;-82
2021/07/31 09:02:47;;;;;;;7.42;5.30;;;;;;;21.53;87.30;98412.01;4177307;83;21462;-82
2021/07/31 09:08:52;;;;;;;9.18;6.00;;;;;;;21.44;87.80;98409.97;4133636;83;21104;-83
2021/07/31 09:14:54;;;;;;;9.10;6.22;;;;;;;21.41;87.92;98403.94;4111212;84;20967;-83
2021/07/31 09:21:15;;;;;;;9.43;6.87;;;;;;;21.42;88.21;98399.91;4107232;83;21040;-82
2021/07/31 09:27:25;;;;;;;9.10;6.35;;;;;;;21.41;88.54;98384.44;4098206;84;21062;-82
2021/07/31 09:33:26;;;;;;;7.75;5.85;;;;;;;21.46;88.67;98376.09;4117742;84;21110;-83
2021/07/31 09:39:52;;;;;;;6.47;5.78;;;;;;;21.52;88.86;98377.02;4117030;84;21469;-82
2021/07/31 09:45:57;;;;;;;7.45;5.83;;;;;;;21.48;88.98;98377.20;4125864;84;21121;-83
2021/07/31 09:51:59;;;;;;;6.58;4.97;;;;;;;21.55;88.66;98376.09;4122845;83;21462;-83
2021/07/31 09:58:05;;;;;;;6.55;5.15;;;;;;;21.71;88.69;98377.98;4133660;84;21030;-83
2021/07/31 10:04:07;;;;;;;6.50;4.50;;;;;;;21.73;88.28;98375.52;4148426;84;21011;-83
2021/07/31 10:10:09;;;;;;;5.37;4.85;;;;;;;21.82;88.36;98384.50;4127864;84;21107;-83
2021/07/31 10:16:10;;;;;;;7.00;5.40;;;;;;;21.91;88.10;98378.92;4095690;85;21023;-83
2021/07/31 10:22:14;;;;;;;8.08;5.50;;;;;;;22.00;88.01;98385.13;4087068;85;21022;-82
2021/07/31 10:28:28;;;;;;;5.70;4.95;;;;;;;22.09;87.33;98380.93;4087198;85;21019;-83
2021/07/31 10:34:58;;;;;;;5.78;4.45;;;;;;;22.18;87.01;98375.34;4054676;85;21089;-83
2021/07/31 10:40:59;;;;;;;6.08;4.60;;;;;;;22.32;86.49;98370.51;4039748;86;21668;-83
2021/07/31 10:47:24;;;;;;;6.50;4.60;;;;;;;22.42;85.28;98364.47;4079509;84;21048;-84
2021/07/31 10:53:49;;;;;;;8.33;5.15;;;;;;;22.58;85.21;98346.63;4083568;85;21589;-83
2021/07/31 11:00:25;;;;;;;5.67;4.80;;;;;;;22.72;84.77;98348.73;4107446;84;21086;-83
2021/07/31 11:06:26;;;;;;;5.28;4.78;;;;;;;22.80;84.37;98332.56;4148965;84;21089;-83
2021/07/31 11:12:44;;;;;;;4.40;4.00;;;;;;;22.87;84.19;98331.45;4120551;84;21578;-84
2021/07/31 11:19:07;;;;;;;4.72;4.10;;;;;;;22.97;83.73;98328.13;4132565;84;21062;-84
2021/07/31 11:24:57;;;;;;;5.20;3.98;;;;;;;22.98;82.03;98333.09;4128160;84;20992;-85
2021/07/31 11:30:59;;;;;;;5.78;3.65;;;;;;;23.13;81.88;98326.98;4149069;84;21003;-84
2021/07/31 11:37:02;;;;;;;3.80;3.30;;;;;;;23.20;79.65;98322.42;4147753;84;21581;-84
2021/07/31 11:43:03;;;;;;;4.97;4.25;;;;;;;23.27;80.56;98324.13;4125447;84;21070;-85
2021/07/31 11:49:27;;;;;;;5.03;4.17;;;;;;;23.40;80.77;98318.43;4114151;84;21087;-83
2021/07/31 11:55:29;;;;;;;3.75;3.17;;;;;;;23.60;80.90;98308.05;4121342;84;21692;-84
2021/07/31 12:01:30;;;;;;;4.55;3.30;;;;;;;23.97;79.88;98305.88;4127373;84;21538;-84
2021/07/31 12:07:32;;;;;;;3.77;2.65;;;;;;;24.45;77.10;98308.61;4047687;86;21029;-84
2021/07/31 12:13:33;;;;;;;2.87;2.37;;;;;;;24.74;77.21;98312.02;4062737;85;21081;-84
2021/07/31 12:19:52;;;;;;;3.80;3.22;;;;;;;24.64;74.30;98304.34;4047512;85;21055;-84
2021/07/31 12:26:02;;;;;;;3.75;2.90;;;;;;;24.50;71.47;98320.52;4062581;85;21558;-84
2021/07/31 12:32:26;;;;;;;3.20;2.90;;;;;;;24.61;73.22;98317.91;4038000;85;22116;-84
2021/07/31 12:38:29;;;;;;;2.58;2.37;;;;;;;24.76;73.04;98311.53;4057256;85;21132;-84
2021/07/31 12:44:30;;;;;;;2.87;2.50;;;;;;;24.93;72.08;98309.13;4009179;87;21062;-84
2021/07/31 12:50:33;;;;;;;3.08;2.45;;;;;;;24.97;68.26;98311.08;4101379;85;21595;-84
2021/07/31 12:56:34;;;;;;;3.00;2.37;;;;;;;25.01;69.94;98311.64;4002078;87;21004;-84
2021/07/31 13:02:35;;;;;;;3.08;2.52;;;;;;;25.08;68.70;98311.23;4048298;85;21042;-83
2021/07/31 13:08:37;;;;;;;3.98;2.70;;;;;;;25.04;68.67;98312.70;4021573;86;21103;-84
2021/07/31 13:14:39;;;;;;;3.60;2.75;;;;;;;25.10;68.16;98310.13;4028145;86;21086;-85
2021/07/31 13:20:41;;;;;;;3.55;2.98;;;;;;;25.17;68.06;98308.30;4043502;85;21121;-84
2021/07/31 13:26:42;;;;;;;4.15;2.83;;;;;;;25.22;68.45;98305.43;4046364;85;21081;-85
2021/07/31 13:32:43;;;;;;;3.05;2.75;;;;;;;25.29;67.87;98302.98;4095200;85;21083;-84
2021/07/31 13:38:49;;;;;;;3.22;2.72;;;;;;;25.30;67.63;98300.95;4077969;85;21588;-83
2021/07/31 13:44:51;;;;;;;3.08;2.70;;;;;;;25.24;66.62;98295.91;4074599;85;21066;-85
2021/07/31 13:50:52;;;;;;;2.95;2.50;;;;;;;25.50;67.21;98295.38;4004936;86;21098;-85
2021/07/31 13:56:55;;;;;;;3.00;2.52;;;;;;;25.66;67.47;98305.39;4144895;84;21082;-85
2021/07/31 14:02:58;;;;;;;4.28;2.60;;;;;;;25.66;67.47;98305.39;4138739;84;21052;-84
2021/07/31 14:09:02;;;;;;;2.58;2.10;;;;;;;25.61;67.59;98313.09;4092810;85;21080;-85
2021/07/31 14:15:04;;;;;;;3.12;2.40;;;;;;;25.36;66.15;98314.43;4149899;84;21066;-84
2021/07/31 14:21:09;;;;;;;3.75;2.60;;;;;;;24.99;66.07;98308.58;4114719;84;21082;-84
2021/07/31 14:27:10;;;;;;;3.22;2.60;;;;;;;24.78;65.95;98302.78;4130981;84;21046;-84
2021/07/31 14:33:11;;;;;;;2.80;2.42;;;;;;;24.69;66.54;98288.91;4123918;84;21069;-84
2021/07/31 14:39:12;;;;;;;4.72;2.87;;;;;;;24.74;66.93;98278.44;4101499;85;21110;-84
2021/07/31 14:45:14;;;;;;;3.67;3.02;;;;;;;25.04;66.95;98277.09;4037098;85;21767;-84
2021/07/31 14:51:19;;;;;;;4.55;2.70;;;;;;;25.16;66.83;98291.37;4048563;84;21151;-84
2021/07/31 14:57:21;;;;;;;4.47;2.90;;;;;;;25.16;67.21;98291.98;4053396;85;21097;-84
2021/07/31 15:03:23;;;;;;;3.58;3.05;;;;;;;25.05;67.07;98301.02;4047302;86;21084;-85
2021/07/31 15:09:24;;;;;;;3.52;3.00;;;;;;;24.94;67.36;98311.28;4052109;85;21145;-84
2021/07/31 15:15:26;;;;;;;3.27;2.90;;;;;;;24.83;68.01;98305.52;4034236;84;21101;-84
2021/07/31 15:21:27;;;;;;;5.00;2.80;;;;;;;24.67;67.97;98296.27;4042595;86;21578;-85
2021/07/31 15:27:29;;;;;;;3.75;3.02;;;;;;;24.51;68.21;98306.67;4132278;84;21044;-84
2021/07/31 15:33:30;;;;;;;3.35;2.98;;;;;;;24.40;68.77;98314.13;4116317;84;21085;-84
2021/07/31 15:39:32;;;;;;;2.92;2.62;;;;;;;24.24;68.84;98319.55;4131915;84;21561;-84
2021/07/31 15:45:33;;;;;;;5.62;2.98;;;;;;;23.89;69.31;98316.47;4130102;84;21058;-85
2021/07/31 15:51:34;;;;;;;8.83;4.78;;;;;;;23.99;69.42;98320.12;4124356;84;21016;-84
2021/07/31 15:57:37;;;;;;;7.35;3.85;;;;;;;24.16;69.78;98310.65;4151034;84;21559;-84
2021/07/31 16:03:38;;;;;;;5.42;4.50;;;;;;;24.18;70.46;98307.50;4122512;84;21105;-83
2021/07/31 16:09:39;;;;;;;4.72;4.12;;;;;;;24.11;70.83;98298.12;4138836;84;20991;-84
2021/07/31 16:15:41;;;;;;;6.00;4.78;;;;;;;24.02;71.25;98287.66;4115675;84;21047;-83
2021/07/31 16:21:43;;;;;;;6.55;5.15;;;;;;;23.95;72.42;98296.38;4139423;84;21040;-83
2021/07/31 16:27:44;;;;;;;7.53;4.87;;;;;;;23.88;72.59;98284.95;4115669;84;21008;-84
2021/07/31 16:33:46;;;;;;;5.92;4.72;;;;;;;23.81;72.39;98278.36;4115064;84;21520;-84
2021/07/31 16:39:47;;;;;;;7.97;4.92;;;;;;;23.83;72.74;98276.47;4124182;84;21091;-83
2021/07/31 16:45:52;;;;;;;6.42;4.85;;;;;;;23.81;73.03;98275.56;4127879;84;22332;-84
2021/07/31 16:51:53;;;;;;;6.67;5.85;;;;;;;23.78;73.97;98272.95;4085638;84;21560;-84
2021/07/31 16:57:54;;;;;;;6.28;5.47;;;;;;;23.70;74.29;98278.77;4132293;84;21554;-84
2021/07/31 17:03:56;;;;;;;6.75;6.03;;;;;;;23.53;74.81;98271.48;4131003;84;21044;-85
2021/07/31 17:10:02;;;;;;;6.15;5.03;;;;;;;23.48;74.96;98280.52;4135191;84;21052;-84
2021/07/31 17:16:04;;;;;;;6.40;5.07;;;;;;;23.42;75.25;98267.68;4127343;84;21162;-84
2021/07/31 17:22:07;;;;;;;5.97;4.70;;;;;;;23.39;75.41;98270.81;4138575;84;21623;-84
2021/07/31 17:28:09;;;;;;;5.83;4.15;;;;;;;23.36;75.74;98261.22;4132516;84;21090;-84
2021/07/31 17:34:13;;;;;;;7.12;4.45;;;;;;;23.27;75.70;98257.89;4138851;84;21047;-84
2021/07/31 17:40:14;;;;;;;6.87;4.72;;;;;;;23.21;75.89;98270.91;4134376;84;21207;-84
2021/07/31 17:46:16;;;;;;;5.80;4.58;;;;;;;23.09;76.34;98264.95;4132489;84;21497;-84
2021/07/31 17:52:18;;;;;;;6.03;5.20;;;;;;;22.98;76.73;98260.53;4134149;84;21093;-84
2021/07/31 17:58:19;;;;;;;9.78;4.80;;;;;;;22.84;77.16;98264.03;4117729;84;21066;-84
2021/07/31 18:04:21;;;;;;;6.20;4.70;;;;;;;22.75;77.62;98264.09;4130569;84;21042;-84
2021/07/31 18:10:22;;;;;;;6.08;4.92;;;;;;;22.70;78.05;98268.30;4134293;84;21031;-84
2021/07/31 18:16:24;;;;;;;9.98;5.03;;;;;;;22.60;78.51;98267.41;4123159;84;21562;-84
2021/07/31 18:22:25;;;;;;;7.83;5.60;;;;;;;22.48;78.99;98265.59;4126818;84;21905;-83
2021/07/31 18:28:26;;;;;;;8.00;5.67;;;;;;;22.39;79.34;98280.97;4137845;84;21027;-84
2021/07/31 18:34:29;;;;;;;7.92;5.72;;;;;;;22.16;79.77;98276.84;4130924;84;21066;-84
2021/07/31 18:40:30;;;;;;;7.47;5.72;;;;;;;21.97;80.38;98276.77;4131291;84;21051;-84
2021/07/31 18:46:32;;;;;;;8.58;6.87;;;;;;;21.85;80.86;98285.31;4125743;84;21019;-83
2021/07/31 18:52:33;;;;;;;10.68;7.30;;;;;;;21.77;81.39;98296.61;4128615;84;21075;-84
2021/07/31 18:58:34;;;;;;;13.72;6.80;;;;;;;21.74;81.76;98299.66;4146218;84;21034;-84
2021/07/31 19:04:35;;;;;;;9.48;8.00;;;;;;;21.59;81.97;98305.72;4108651;84;21088;-84
2021/07/31 19:10:36;;;;;;;18.32;11.18;;;;;;;21.34;82.37;98317.94;4117482;84;21085;-84
2021/07/31 19:16:38;;;;;;;16.15;13.53;;;;;;;21.11;82.99;98326.85;4127542;84;21046;-84
2021/07/31 19:22:39;;;;;;;19.82;13.95;;;;;;;21.01;83.37;98337.83;4129137;84;21550;-84
2021/07/31 19:28:41;;;;;;;15.13;12.03;;;;;;;20.97;83.81;98339.20;4115422;84;21058;-84
2021/07/31 19:34:42;;;;;;;17.42;11.75;;;;;;;20.85;83.99;98338.05;4144226;84;21059;-84
2021/07/31 19:40:43;;;;;;;13.03;10.48;;;;;;;20.67;84.23;98332.41;4128152;84;21052;-85
2021/07/31 19:46:48;;;;;;;18.48;11.15;;;;;;;20.59;84.69;98346.45;4135355;84;21038;-83
2021/07/31 19:52:47;;;;;;;15.80;12.05;;;;;;;20.60;84.95;98362.50;4116627;84;21015;-83
2021/07/31 19:58:48;;;;;;;19.07;12.35;;;;;;;20.53;85.29;98365.58;4117657;84;21115;-83
2021/07/31 20:04:50;;;;;;;11.63;9.50;;;;;;;20.44;85.44;98362.13;4115485;84;21065;-83
2021/07/31 20:10:51;;;;;;;12.45;8.85;;;;;;;20.26;85.66;98364.03;4115886;84;21873;-83
2021/07/31 20:16:52;;;;;;;18.40;13.38;;;;;;;20.11;85.89;98362.36;4126238;84;21010;-83
2021/07/31 20:22:54;;;;;;;13.62;11.12;;;;;;;19.95;86.07;98365.35;4133094;84;21051;-84
2021/07/31 20:28:56;;;;;;;18.45;9.53;;;;;;;19.78;86.37;98356.42;4142619;84;21014;-83
2021/07/31 20:34:57;;;;;;;14.07;8.75;;;;;;;19.72;86.92;98362.99;4127873;84;21488;-83
2021/07/31 20:40:58;;;;;;;15.15;10.15;;;;;;;19.67;87.23;98369.90;4127881;84;21538;-83
2021/07/31 20:47:00;;;;;;;17.12;12.15;;;;;;;19.57;87.19;98378.61;4120474;84;21067;-82
2021/07/31 20:53:01;;;;;;;17.00;11.50;;;;;;;19.47;87.48;98379.73;4136088;84;21066;-84
2021/07/31 20:59:03;;;;;;;13.22;10.28;;;;;;;19.42;87.67;98386.64;4129432;84;21068;-83
2021/07/31 21:05:05;;;;;;;15.43;10.15;;;;;;;19.25;87.57;98383.81;4136487;84;21633;-83
2021/07/31 21:11:11;;;;;;;13.55;10.88;;;;;;;19.12;88.00;98393.39;4112363;84;21047;-82
2021/07/31 21:17:12;;;;;;;15.85;9.85;;;;;;;19.09;88.44;98386.72;4121077;84;21667;-83
2021/07/31 21:23:14;;;;;;;13.85;9.70;;;;;;;19.05;88.44;98397.77;4128733;84;21035;-84
2021/07/31 21:29:15;;;;;;;14.80;10.58;;;;;;;18.95;88.52;98401.05;4135995;84;21400;-83
2021/07/31 21:35:16;;;;;;;14.33;10.82;;;;;;;18.87;88.66;98404.50;4113533;84;21046;-83
2021/07/31 21:41:18;;;;;;;12.82;9.73;;;;;;;18.80;88.81;98403.33;4134313;84;21893;-82
2021/07/31 21:47:21;;;;;;;16.82;10.10;;;;;;;18.65;89.04;98412.08;4124240;84;21090;-82
2021/07/31 21:53:22;;;;;;;14.73;11.22;;;;;;;18.56;89.25;98409.80;4128269;84;21058;-82
2021/07/31 21:59:23;;;;;;;14.35;10.58;;;;;;;18.54;89.58;98412.25;4122015;84;21100;-83
2021/07/31 22:05:24;;;;;;;13.15;10.98;;;;;;;18.48;89.83;98412.61;4125926;84;21075;-82
2021/07/31 22:11:26;;;;;;;17.77;10.82;;;;;;;18.41;89.90;98415.60;4131883;84;21055;-83
2021/07/31 22:17:27;;;;;;;14.93;10.85;;;;;;;18.31;89.90;98402.79;4139395;84;21062;-82
2021/07/31 22:23:28;;;;;;;15.38;10.95;;;;;;;18.28;90.34;98409.22;4136177;84;21006;-83
2021/07/31 22:29:30;;;;;;;15.03;10.78;;;;;;;18.26;90.47;98412.42;4137665;84;21619;-83
2021/07/31 22:35:31;;;;;;;17.40;10.45;;;;;;;18.24;90.59;98405.78;4129429;84;21078;-84
2021/07/31 22:41:32;;;;;;;15.58;9.55;;;;;;;18.17;90.89;98406.75;4136550;84;21048;-84
2021/07/31 22:47:35;;;;;;;14.90;9.38;;;;;;;18.19;91.22;98402.95;4122758;84;21054;-82
2021/07/31 22:53:37;;;;;;;15.70;11.33;;;;;;;18.20;91.14;98396.18;4130104;84;21058;-83
2021/07/31 22:59:38;;;;;;;14.85;9.85;;;;;;;18.16;91.04;98399.67;4105307;84;21050;-83
2021/07/31 23:05:39;;;;;;;13.38;10.05;;;;;;;17.99;91.13;98419.55;4076662;86;21120;-82
2021/07/31 23:11:40;;;;;;;14.23;8.85;;;;;;;17.96;91.72;98429.49;4002079;86;21075;-82
2021/07/31 23:17:41;;;;;;;10.32;8.65;;;;;;;18.01;92.02;98434.50;4119446;84;21357;-83
2021/07/31 23:23:43;;;;;;;13.35;8.75;;;;;;;18.00;92.15;98445.42;4125478;84;21028;-82
2021/07/31 23:29:44;;;;;;;11.75;8.70;;;;;;;18.07;92.81;98451.38;4136812;84;21060;-83
2021/07/31 23:35:46;;;;;;;14.13;8.93;;;;;;;18.08;92.13;98461.23;4131349;84;21158;-82
2021/07/31 23:41:47;;;;;;;17.77;9.90;;;;;;;17.97;92.48;98461.53;4028760;85;21048;-82
2021/07/31 23:47:48;;;;;;;13.30;9.33;;;;;;;18.00;92.54;98453.73;4100204;85;20987;-83
2021/07/31 23:53:50;;;;;;;16.57;10.45;;;;;;;17.82;92.50;98440.95;3978047;87;21031;-82
2021/07/31 23:59:51;;;;;;;16.62;10.68;;;;;;;17.74;93.62;98441.59;3998770;86;21534;-83
